sensor_id;sensor_type;location;lat;lon;timestamp;pressure;altitude;pressure_sealevel;temperature
45701;BMP280;36277;32.852;-116.998;2024-02-15T00:01:11;100486.88;;;25.21
45701;BMP280;36277;32.852;-116.998;2024-02-15T00:03:37;100488.16;;;25.25
45701;BMP280;36277;32.852;-116.998;2024-02-15T00:06:03;100481.88;;;25.30
45701;BMP280;36277;32.852;-116.998;2024-02-15T00:08:30;100478.56;;;25.35
45701;BMP280;36277;32.852;-116.998;2024-02-15T00:10:56;100478.34;;;25.36
45701;BMP280;36277;32.852;-116.998;2024-02-15T00:13:22;100472.72;;;25.44
45701;BMP280;36277;32.852;-116.998;2024-02-15T00:15:49;100475.28;;;25.46
45701;BMP280;36277;32.852;-116.998;2024-02-15T00:18:16;100467.44;;;25.49
45701;BMP280;36277;32.852;-116.998;2024-02-15T00:20:42;100468.09;;;25.51
45701;BMP280;36277;32.852;-116.998;2024-02-15T00:23:09;100464.94;;;25.54
45701;BMP280;36277;32.852;-116.998;2024-02-15T00:25:36;100464.38;;;25.59
45701;BMP280;36277;32.852;-116.998;2024-02-15T00:28:02;100467.81;;;25.61
45701;BMP280;36277;32.852;-116.998;2024-02-15T00:30:29;100462.66;;;25.58
45701;BMP280;36277;32.852;-116.998;2024-02-15T00:32:55;100462.00;;;25.21
45701;BMP280;36277;32.852;-116.998;2024-02-15T00:35:21;100474.16;;;24.54
45701;BMP280;36277;32.852;-116.998;2024-02-15T00:37:48;100466.75;;;24.32
45701;BMP280;36277;32.852;-116.998;2024-02-15T00:40:16;100469.75;;;24.45
45701;BMP280;36277;32.852;-116.998;2024-02-15T00:42:42;100471.59;;;24.67
45701;BMP280;36277;32.852;-116.998;2024-02-15T00:45:09;100471.41;;;24.83
45701;BMP280;36277;32.852;-116.998;2024-02-15T00:47:36;100473.31;;;24.97
45701;BMP280;36277;32.852;-116.998;2024-02-15T00:50:04;100468.72;;;25.04
45701;BMP280;36277;32.852;-116.998;2024-02-15T00:52:30;100461.59;;;25.09
45701;BMP280;36277;32.852;-116.998;2024-02-15T00:54:57;100460.34;;;25.26
45701;BMP280;36277;32.852;-116.998;2024-02-15T00:57:23;100463.47;;;25.37
45701;BMP280;36277;32.852;-116.998;2024-02-15T00:59:49;100467.28;;;25.36
45701;BMP280;36277;32.852;-116.998;2024-02-15T01:02:26;100460.31;;;25.40
45701;BMP280;36277;32.852;-116.998;2024-02-15T01:04:53;100462.44;;;25.38
45701;BMP280;36277;32.852;-116.998;2024-02-15T01:07:25;100471.06;;;25.50
45701;BMP280;36277;32.852;-116.998;2024-02-15T01:09:53;100476.59;;;25.50
45701;BMP280;36277;32.852;-116.998;2024-02-15T01:12:23;100472.31;;;25.47
45701;BMP280;36277;32.852;-116.998;2024-02-15T01:14:49;100469.75;;;25.46
45701;BMP280;36277;32.852;-116.998;2024-02-15T01:17:15;100475.28;;;25.46
45701;BMP280;36277;32.852;-116.998;2024-02-15T01:19:42;100471.84;;;25.44
45701;BMP280;36277;32.852;-116.998;2024-02-15T01:22:14;100482.88;;;25.44
45701;BMP280;36277;32.852;-116.998;2024-02-15T01:24:43;100482.06;;;25.43
45701;BMP280;36277;32.852;-116.998;2024-02-15T01:27:14;100479.47;;;25.42
45701;BMP280;36277;32.852;-116.998;2024-02-15T01:29:41;100489.69;;;25.41
45701;BMP280;36277;32.852;-116.998;2024-02-15T01:32:08;100487.09;;;25.40
45701;BMP280;36277;32.852;-116.998;2024-02-15T01:34:39;100485.38;;;25.39
45701;BMP280;36277;32.852;-116.998;2024-02-15T01:37:06;100482.63;;;25.39
45701;BMP280;36277;32.852;-116.998;2024-02-15T01:39:32;100481.94;;;25.37
45701;BMP280;36277;32.852;-116.998;2024-02-15T01:41:58;100499.19;;;25.39
45701;BMP280;36277;32.852;-116.998;2024-02-15T01:44:27;100488.34;;;25.37
45701;BMP280;36277;32.852;-116.998;2024-02-15T01:46:57;100500.06;;;25.39
45701;BMP280;36277;32.852;-116.998;2024-02-15T01:49:30;100497.69;;;25.36
45701;BMP280;36277;32.852;-116.998;2024-02-15T01:52:04;100496.19;;;25.34
45701;BMP280;36277;32.852;-116.998;2024-02-15T01:54:45;100490.44;;;25.35
45701;BMP280;36277;32.852;-116.998;2024-02-15T01:57:18;100497.22;;;25.33
45701;BMP280;36277;32.852;-116.998;2024-02-15T01:59:47;100502.25;;;25.29
45701;BMP280;36277;32.852;-116.998;2024-02-15T02:02:14;100501.22;;;25.30
45701;BMP280;36277;32.852;-116.998;2024-02-15T02:04:42;100504.34;;;25.27
45701;BMP280;36277;32.852;-116.998;2024-02-15T02:07:08;100502.25;;;25.29
45701;BMP280;36277;32.852;-116.998;2024-02-15T02:09:35;100499.72;;;25.28
45701;BMP280;36277;32.852;-116.998;2024-02-15T02:12:01;100495.22;;;25.27
45701;BMP280;36277;32.852;-116.998;2024-02-15T02:14:27;100503.69;;;25.26
45701;BMP280;36277;32.852;-116.998;2024-02-15T02:16:54;100515.78;;;25.25
45701;BMP280;36277;32.852;-116.998;2024-02-15T02:19:21;100515.78;;;25.25
45701;BMP280;36277;32.852;-116.998;2024-02-15T02:21:48;100509.41;;;25.24
45701;BMP280;36277;32.852;-116.998;2024-02-15T02:24:22;100526.47;;;25.27
45701;BMP280;36277;32.852;-116.998;2024-02-15T02:26:49;100526.22;;;25.23
45701;BMP280;36277;32.852;-116.998;2024-02-15T02:29:16;100525.34;;;25.22
45701;BMP280;36277;32.852;-116.998;2024-02-15T02:31:42;100529.34;;;25.20
45701;BMP280;36277;32.852;-116.998;2024-02-15T02:34:08;100532.09;;;25.20
45701;BMP280;36277;32.852;-116.998;2024-02-15T02:36:36;100538.69;;;25.19
45701;BMP280;36277;32.852;-116.998;2024-02-15T02:39:02;100526.97;;;25.17
45701;BMP280;36277;32.852;-116.998;2024-02-15T02:41:28;100529.06;;;25.15
45701;BMP280;36277;32.852;-116.998;2024-02-15T02:43:58;100539.06;;;25.16
45701;BMP280;36277;32.852;-116.998;2024-02-15T02:46:24;100544.06;;;25.12
45701;BMP280;36277;32.852;-116.998;2024-02-15T02:48:51;100547.69;;;25.13
45701;BMP280;36277;32.852;-116.998;2024-02-15T02:51:17;100550.44;;;25.13
45701;BMP280;36277;32.852;-116.998;2024-02-15T02:53:44;100553.59;;;25.10
45701;BMP280;36277;32.852;-116.998;2024-02-15T02:56:10;100550.00;;;25.09
45701;BMP280;36277;32.852;-116.998;2024-02-15T02:58:36;100560.38;;;25.07
45701;BMP280;36277;32.852;-116.998;2024-02-15T03:01:03;100558.44;;;25.08
45701;BMP280;36277;32.852;-116.998;2024-02-15T03:03:29;100562.25;;;25.07
45701;BMP280;36277;32.852;-116.998;2024-02-15T03:05:56;100560.53;;;25.06
45701;BMP280;36277;32.852;-116.998;2024-02-15T03:08:22;100572.63;;;25.05
45701;BMP280;36277;32.852;-116.998;2024-02-15T03:10:49;100572.84;;;25.03
45701;BMP280;36277;32.852;-116.998;2024-02-15T03:13:17;100568.16;;;25.04
45701;BMP280;36277;32.852;-116.998;2024-02-15T03:15:45;100571.13;;;25.02
45701;BMP280;36277;32.852;-116.998;2024-02-15T03:18:16;100569.41;;;25.01
45701;BMP280;36277;32.852;-116.998;2024-02-15T03:20:43;100565.09;;;24.99
45701;BMP280;36277;32.852;-116.998;2024-02-15T03:23:09;100569.78;;;24.98
45701;BMP280;36277;32.852;-116.998;2024-02-15T03:25:36;100571.03;;;24.96
45701;BMP280;36277;32.852;-116.998;2024-02-15T03:28:03;100565.88;;;24.93
45701;BMP280;36277;32.852;-116.998;2024-02-15T03:30:32;100567.59;;;24.94
45701;BMP280;36277;32.852;-116.998;2024-02-15T03:32:59;100575.19;;;24.92
45701;BMP280;36277;32.852;-116.998;2024-02-15T03:35:27;100581.56;;;24.92
45701;BMP280;36277;32.852;-116.998;2024-02-15T03:37:57;100583.88;;;24.89
45701;BMP280;36277;32.852;-116.998;2024-02-15T03:40:24;100590.44;;;24.88
45701;BMP280;36277;32.852;-116.998;2024-02-15T03:42:56;100598.03;;;24.86
45701;BMP280;36277;32.852;-116.998;2024-02-15T03:45:22;100593.56;;;24.85
45701;BMP280;36277;32.852;-116.998;2024-02-15T03:47:51;100604.81;;;24.83
45701;BMP280;36277;32.852;-116.998;2024-02-15T03:50:18;100596.69;;;24.82
45701;BMP280;36277;32.852;-116.998;2024-02-15T03:52:45;100603.09;;;24.82
45701;BMP280;36277;32.852;-116.998;2024-02-15T03:55:12;100609.81;;;24.80
45701;BMP280;36277;32.852;-116.998;2024-02-15T03:57:39;100607.06;;;24.80
45701;BMP280;36277;32.852;-116.998;2024-02-15T04:00:12;100609.34;;;24.76
45701;BMP280;36277;32.852;-116.998;2024-02-15T04:02:46;100616.09;;;24.74
45701;BMP280;36277;32.852;-116.998;2024-02-15T04:05:16;100608.84;;;24.73
45701;BMP280;36277;32.852;-116.998;2024-02-15T04:07:44;100611.81;;;24.71
45701;BMP280;36277;32.852;-116.998;2024-02-15T04:10:10;100618.56;;;24.69
45701;BMP280;36277;32.852;-116.998;2024-02-15T04:12:38;100618.56;;;24.69
45701;BMP280;36277;32.852;-116.998;2024-02-15T04:15:06;100614.25;;;24.66
45701;BMP280;36277;32.852;-116.998;2024-02-15T04:17:38;100619.09;;;24.64
45701;BMP280;36277;32.852;-116.998;2024-02-15T04:20:05;100622.06;;;24.63
45701;BMP280;36277;32.852;-116.998;2024-02-15T04:22:32;100625.88;;;24.62
45701;BMP280;36277;32.852;-116.998;2024-02-15T04:25:05;100623.09;;;24.62
45701;BMP280;36277;32.852;-116.998;2024-02-15T04:27:33;100623.47;;;24.59
45701;BMP280;36277;32.852;-116.998;2024-02-15T04:29:59;100622.63;;;24.58
45701;BMP280;36277;32.852;-116.998;2024-02-15T04:32:25;100628.31;;;24.57
45701;BMP280;36277;32.852;-116.998;2024-02-15T04:34:52;100632.13;;;24.56
45701;BMP280;36277;32.852;-116.998;2024-02-15T04:37:18;100632.31;;;24.54
45701;BMP280;36277;32.852;-116.998;2024-02-15T04:39:46;100638.00;;;24.53
45701;BMP280;36277;32.852;-116.998;2024-02-15T04:42:13;100628.38;;;24.49
45701;BMP280;36277;32.852;-116.998;2024-02-15T04:44:41;100633.91;;;24.49
45701;BMP280;36277;32.852;-116.998;2024-02-15T04:47:07;100638.56;;;24.48
45701;BMP280;36277;32.852;-116.998;2024-02-15T04:49:34;100653.22;;;24.49
45701;BMP280;36277;32.852;-116.998;2024-02-15T04:52:04;100654.25;;;24.48
45701;BMP280;36277;32.852;-116.998;2024-02-15T04:54:31;100659.63;;;24.41
45701;BMP280;36277;32.852;-116.998;2024-02-15T04:56:58;100664.66;;;24.38
45701;BMP280;36277;32.852;-116.998;2024-02-15T04:59:26;100666.06;;;24.34
45701;BMP280;36277;32.852;-116.998;2024-02-15T05:01:55;100667.09;;;24.33
45701;BMP280;36277;32.852;-116.998;2024-02-15T05:04:24;100672.50;;;24.26
45701;BMP280;36277;32.852;-116.998;2024-02-15T05:06:51;100679.06;;;24.25
45701;BMP280;36277;32.852;-116.998;2024-02-15T05:09:18;100681.69;;;24.19
45701;BMP280;36277;32.852;-116.998;2024-02-15T05:11:44;100683.41;;;24.20
45701;BMP280;36277;32.852;-116.998;2024-02-15T05:14:17;100683.25;;;24.13
45701;BMP280;36277;32.852;-116.998;2024-02-15T05:16:46;100681.88;;;24.10
45701;BMP280;36277;32.852;-116.998;2024-02-15T05:19:15;100693.66;;;24.04
45701;BMP280;36277;32.852;-116.998;2024-02-15T05:21:42;100694.69;;;24.03
45701;BMP280;36277;32.852;-116.998;2024-02-15T05:24:14;100694.69;;;24.03
45701;BMP280;36277;32.852;-116.998;2024-02-15T05:26:45;100704.16;;;24.00
45701;BMP280;36277;32.852;-116.998;2024-02-15T05:29:18;100715.75;;;23.96
45701;BMP280;36277;32.852;-116.998;2024-02-15T05:31:46;100716.59;;;23.96
45701;BMP280;36277;32.852;-116.998;2024-02-15T05:34:16;100718.50;;;23.96
45701;BMP280;36277;32.852;-116.998;2024-02-15T05:36:42;100720.78;;;23.84
45701;BMP280;36277;32.852;-116.998;2024-02-15T05:39:08;100721.47;;;23.86
45701;BMP280;36277;32.852;-116.998;2024-02-15T05:41:37;100720.44;;;23.87
45701;BMP280;36277;32.852;-116.998;2024-02-15T05:44:05;100724.91;;;23.88
45701;BMP280;36277;32.852;-116.998;2024-02-15T05:46:33;100726.78;;;23.88
45701;BMP280;36277;32.852;-116.998;2024-02-15T05:49:03;100729.75;;;23.86
45701;BMP280;36277;32.852;-116.998;2024-02-15T05:51:30;100736.09;;;23.87
45701;BMP280;36277;32.852;-116.998;2024-02-15T05:53:57;100734.56;;;23.84
45701;BMP280;36277;32.852;-116.998;2024-02-15T05:56:30;100736.66;;;23.82
45701;BMP280;36277;32.852;-116.998;2024-02-15T05:58:57;100738.19;;;23.77
45701;BMP280;36277;32.852;-116.998;2024-02-15T06:01:23;100738.91;;;23.79
45701;BMP280;36277;32.852;-116.998;2024-02-15T06:03:50;100746.16;;;23.80
45701;BMP280;36277;32.852;-116.998;2024-02-15T06:06:20;100750.06;;;23.77
45701;BMP280;36277;32.852;-116.998;2024-02-15T06:08:47;100747.31;;;23.77
45701;BMP280;36277;32.852;-116.998;2024-02-15T06:11:18;100748.22;;;23.78
45701;BMP280;36277;32.852;-116.998;2024-02-15T06:13:46;100752.31;;;23.74
45701;BMP280;36277;32.852;-116.998;2024-02-15T06:16:12;100754.03;;;23.75
45701;BMP280;36277;32.852;-116.998;2024-02-15T06:18:39;100764.53;;;23.71
45701;BMP280;36277;32.852;-116.998;2024-02-15T06:21:05;100764.91;;;23.68
45701;BMP280;36277;32.852;-116.998;2024-02-15T06:23:32;100764.91;;;23.68
45701;BMP280;36277;32.852;-116.998;2024-02-15T06:25:59;100762.31;;;23.67
45701;BMP280;36277;32.852;-116.998;2024-02-15T06:28:26;100769.06;;;23.64
45701;BMP280;36277;32.852;-116.998;2024-02-15T06:31:11;100773.88;;;23.62
45701;BMP280;36277;32.852;-116.998;2024-02-15T06:33:56;100765.47;;;23.56
45701;BMP280;36277;32.852;-116.998;2024-02-15T06:39:30;100770.78;;;23.49
45701;BMP280;36277;32.852;-116.998;2024-02-15T06:42:13;100770.78;;;23.49
45701;BMP280;36277;32.852;-116.998;2024-02-15T06:44:46;100773.91;;;23.46
45701;BMP280;36277;32.852;-116.998;2024-02-15T06:47:13;100772.84;;;23.47
45701;BMP280;36277;32.852;-116.998;2024-02-15T06:49:45;100765.63;;;23.46
45701;BMP280;36277;32.852;-116.998;2024-02-15T06:52:12;100766.16;;;23.42
45701;BMP280;36277;32.852;-116.998;2024-02-15T06:54:39;100768.06;;;23.41
45701;BMP280;36277;32.852;-116.998;2024-02-15T06:57:07;100771.84;;;23.40
45701;BMP280;36277;32.852;-116.998;2024-02-15T06:59:34;100769.25;;;23.39
45701;BMP280;36277;32.852;-116.998;2024-02-15T07:02:03;100764.97;;;23.36
45701;BMP280;36277;32.852;-116.998;2024-02-15T07:04:35;100767.72;;;23.36
45701;BMP280;36277;32.852;-116.998;2024-02-15T07:07:04;100768.75;;;23.35
45701;BMP280;36277;32.852;-116.998;2024-02-15T07:09:33;100776.16;;;23.35
45701;BMP280;36277;32.852;-116.998;2024-02-15T07:12:05;100778.41;;;23.31
45701;BMP280;36277;32.852;-116.998;2024-02-15T07:14:35;100784.75;;;23.32
45701;BMP280;36277;32.852;-116.998;2024-02-15T07:17:06;100780.47;;;23.29
45701;BMP280;36277;32.852;-116.998;2024-02-15T07:19:34;100788.91;;;23.28
45701;BMP280;36277;32.852;-116.998;2024-02-15T07:22:09;100787.69;;;23.30
45701;BMP280;36277;32.852;-116.998;2024-02-15T07:24:39;100786.66;;;23.23
45701;BMP280;36277;32.852;-116.998;2024-02-15T07:27:13;100780.13;;;23.32
45701;BMP280;36277;32.852;-116.998;2024-02-15T07:29:41;100789.22;;;23.33
45701;BMP280;36277;32.852;-116.998;2024-02-15T07:32:13;100786.31;;;23.42
45701;BMP280;36277;32.852;-116.998;2024-02-15T07:35:00;100778.38;;;23.47
45701;BMP280;36277;32.852;-116.998;2024-02-15T07:37:34;100774.94;;;23.53
45701;BMP280;36277;32.852;-116.998;2024-02-15T07:40:01;100778.72;;;23.60
45701;BMP280;36277;32.852;-116.998;2024-02-15T07:42:30;100769.91;;;23.65
45701;BMP280;36277;32.852;-116.998;2024-02-15T07:44:57;100770.06;;;23.71
45701;BMP280;36277;32.852;-116.998;2024-02-15T07:47:23;100762.84;;;23.78
45701;BMP280;36277;32.852;-116.998;2024-02-15T07:49:50;100744.06;;;23.82
45701;BMP280;36277;32.852;-116.998;2024-02-15T07:52:16;100739.75;;;23.87
45701;BMP280;36277;32.852;-116.998;2024-02-15T07:54:43;100739.72;;;23.95
45701;BMP280;36277;32.852;-116.998;2024-02-15T07:57:09;100725.53;;;23.98
45701;BMP280;36277;32.852;-116.998;2024-02-15T07:59:36;100729.50;;;24.04
45701;BMP280;36277;32.852;-116.998;2024-02-15T08:02:05;100726.88;;;24.10
45701;BMP280;36277;32.852;-116.998;2024-02-15T08:04:31;100730.81;;;24.15
45701;BMP280;36277;32.852;-116.998;2024-02-15T08:06:57;100727.53;;;24.20
45701;BMP280;36277;32.852;-116.998;2024-02-15T08:09:23;100736.97;;;24.25
45701;BMP280;36277;32.852;-116.998;2024-02-15T08:11:50;100740.06;;;24.30
45701;BMP280;36277;32.852;-116.998;2024-02-15T08:14:17;100741.41;;;24.34
45701;BMP280;36277;32.852;-116.998;2024-02-15T08:16:43;100738.97;;;24.39
45701;BMP280;36277;32.852;-116.998;2024-02-15T08:19:09;100756.75;;;24.37
45701;BMP280;36277;32.852;-116.998;2024-02-15T08:21:37;100753.31;;;24.35
45701;BMP280;36277;32.852;-116.998;2024-02-15T08:24:04;100755.56;;;24.31
45701;BMP280;36277;32.852;-116.998;2024-02-15T08:26:39;100759.53;;;24.29
45701;BMP280;36277;32.852;-116.998;2024-02-15T08:29:06;100764.72;;;24.24
45701;BMP280;36277;32.852;-116.998;2024-02-15T08:31:33;100765.13;;;24.21
45701;BMP280;36277;32.852;-116.998;2024-02-15T08:34:03;100772.72;;;24.19
45701;BMP280;36277;32.852;-116.998;2024-02-15T08:36:36;100774.25;;;24.13
45701;BMP280;36277;32.852;-116.998;2024-02-15T08:39:02;100771.69;;;24.12
45701;BMP280;36277;32.852;-116.998;2024-02-15T08:41:30;100770.13;;;24.10
45701;BMP280;36277;32.852;-116.998;2024-02-15T08:43:56;100761.38;;;24.06
45701;BMP280;36277;32.852;-116.998;2024-02-15T08:46:24;100766.41;;;24.03
45701;BMP280;36277;32.852;-116.998;2024-02-15T08:48:52;100755.53;;;24.01
45701;BMP280;36277;32.852;-116.998;2024-02-15T08:51:19;100761.38;;;23.98
45701;BMP280;36277;32.852;-116.998;2024-02-15T08:53:46;100758.81;;;23.97
45701;BMP280;36277;32.852;-116.998;2024-02-15T08:56:13;100768.13;;;23.96
45701;BMP280;36277;32.852;-116.998;2024-02-15T08:58:39;100761.09;;;23.93
45701;BMP280;36277;32.852;-116.998;2024-02-15T09:01:06;100764.00;;;23.92
45701;BMP280;36277;32.852;-116.998;2024-02-15T09:03:34;100756.97;;;23.89
45701;BMP280;36277;32.852;-116.998;2024-02-15T09:06:00;100757.31;;;23.86
45701;BMP280;36277;32.852;-116.998;2024-02-15T09:08:29;100764.91;;;23.84
45701;BMP280;36277;32.852;-116.998;2024-02-15T09:10:56;100758.00;;;23.80
45701;BMP280;36277;32.852;-116.998;2024-02-15T09:13:23;100751.66;;;23.80
45701;BMP280;36277;32.852;-116.998;2024-02-15T09:15:50;100749.22;;;23.77
45701;BMP280;36277;32.852;-116.998;2024-02-15T09:18:16;100753.16;;;23.74
45701;BMP280;36277;32.852;-116.998;2024-02-15T09:20:48;100749.72;;;23.72
45701;BMP280;36277;32.852;-116.998;2024-02-15T09:23:21;100753.53;;;23.71
45701;BMP280;36277;32.852;-116.998;2024-02-15T09:25:49;100755.63;;;23.69
45701;BMP280;36277;32.852;-116.998;2024-02-15T09:28:18;100752.19;;;23.67
45701;BMP280;36277;32.852;-116.998;2024-02-15T09:30:48;100759.75;;;23.65
45701;BMP280;36277;32.852;-116.998;2024-02-15T09:33:19;100760.94;;;23.63
45701;BMP280;36277;32.852;-116.998;2024-02-15T09:35:45;100765.09;;;23.59
45701;BMP280;36277;32.852;-116.998;2024-02-15T09:38:12;100761.84;;;23.55
45701;BMP280;36277;32.852;-116.998;2024-02-15T09:40:43;100762.03;;;23.54
45701;BMP280;36277;32.852;-116.998;2024-02-15T09:43:10;100759.44;;;23.52
45701;BMP280;36277;32.852;-116.998;2024-02-15T09:45:39;100764.44;;;23.49
45701;BMP280;36277;32.852;-116.998;2024-02-15T09:48:06;100760.66;;;23.50
45701;BMP280;36277;32.852;-116.998;2024-02-15T09:50:34;100767.34;;;23.47
45701;BMP280;36277;32.852;-116.998;2024-02-15T09:53:02;100764.97;;;23.44
45701;BMP280;36277;32.852;-116.998;2024-02-15T09:55:29;100765.13;;;23.43
45701;BMP280;36277;32.852;-116.998;2024-02-15T09:57:55;100763.41;;;23.42
45701;BMP280;36277;32.852;-116.998;2024-02-15T10:00:23;100768.06;;;23.41
45701;BMP280;36277;32.852;-116.998;2024-02-15T10:02:53;100763.25;;;23.43
45701;BMP280;36277;32.852;-116.998;2024-02-15T10:05:21;100769.44;;;23.37
45701;BMP280;36277;32.852;-116.998;2024-02-15T10:07:48;100763.25;;;23.35
45701;BMP280;36277;32.852;-116.998;2024-02-15T10:10:24;100762.91;;;23.38
45701;BMP280;36277;32.852;-116.998;2024-02-15T10:12:53;100768.22;;;23.32
45701;BMP280;36277;32.852;-116.998;2024-02-15T10:15:34;100762.72;;;23.40
45701;BMP280;36277;32.852;-116.998;2024-02-15T10:18:08;100760.84;;;23.40
45701;BMP280;36277;32.852;-116.998;2024-02-15T10:20:36;100763.91;;;23.45
45701;BMP280;36277;32.852;-116.998;2024-02-15T10:23:14;100762.53;;;23.57
45701;BMP280;36277;32.852;-116.998;2024-02-15T10:25:44;100767.84;;;23.59
45701;BMP280;36277;32.852;-116.998;2024-02-15T10:28:11;100770.44;;;23.68
45701;BMP280;36277;32.852;-116.998;2024-02-15T10:30:39;100765.06;;;23.75
45701;BMP280;36277;32.852;-116.998;2024-02-15T10:33:09;100763.53;;;23.80
45701;BMP280;36277;32.852;-116.998;2024-02-15T10:35:36;100757.31;;;23.86
45701;BMP280;36277;32.852;-116.998;2024-02-15T10:38:10;100750.75;;;23.95
45701;BMP280;36277;32.852;-116.998;2024-02-15T10:40:37;100743.13;;;23.97
45701;BMP280;36277;32.852;-116.998;2024-02-15T10:43:04;100739.66;;;24.03
45701;BMP280;36277;32.852;-116.998;2024-02-15T10:45:35;100752.06;;;24.07
45701;BMP280;36277;32.852;-116.998;2024-02-15T10:48:09;100769.44;;;24.15
45701;BMP280;36277;32.852;-116.998;2024-02-15T10:50:36;100761.28;;;24.22
45701;BMP280;36277;32.852;-116.998;2024-02-15T10:53:18;100776.09;;;24.29
45701;BMP280;36277;32.852;-116.998;2024-02-15T10:56:18;100770.91;;;24.34
45701;BMP280;36277;32.852;-116.998;2024-02-15T10:59:10;100781.75;;;24.35
45701;BMP280;36277;32.852;-116.998;2024-02-15T11:01:40;100782.94;;;24.41
45701;BMP280;36277;32.852;-116.998;2024-02-15T11:04:08;100772.94;;;24.40
45701;BMP280;36277;32.852;-116.998;2024-02-15T11:06:38;100785.03;;;24.39
45701;BMP280;36277;32.852;-116.998;2024-02-15T11:09:08;100774.50;;;24.34
45701;BMP280;36277;32.852;-116.998;2024-02-15T11:11:38;100781.25;;;24.32
45701;BMP280;36277;32.852;-116.998;2024-02-15T11:14:27;100781.44;;;24.30
45701;BMP280;36277;32.852;-116.998;2024-02-15T11:16:58;100766.44;;;24.25
45701;BMP280;36277;32.852;-116.998;2024-02-15T11:22:07;100777.19;;;24.20
45701;BMP280;36277;32.852;-116.998;2024-02-15T11:24:36;100768.22;;;24.18
45701;BMP280;36277;32.852;-116.998;2024-02-15T11:27:06;100768.22;;;24.18
45701;BMP280;36277;32.852;-116.998;2024-02-15T11:29:56;100764.25;;;24.13
45701;BMP280;36277;32.852;-116.998;2024-02-15T11:32:43;100760.13;;;24.09
45701;BMP280;36277;32.852;-116.998;2024-02-15T11:35:17;100752.41;;;24.04
45701;BMP280;36277;32.852;-116.998;2024-02-15T11:40:21;100754.84;;;23.99
45701;BMP280;36277;32.852;-116.998;2024-02-15T11:42:56;100744.84;;;23.98
45701;BMP280;36277;32.852;-116.998;2024-02-15T11:45:29;100751.78;;;23.94
45701;BMP280;36277;32.852;-116.998;2024-02-15T11:48:10;100751.78;;;23.94
45701;BMP280;36277;32.852;-116.998;2024-02-15T11:50:38;100754.00;;;23.91
45701;BMP280;36277;32.852;-116.998;2024-02-15T11:53:07;100758.69;;;23.90
45701;BMP280;36277;32.852;-116.998;2024-02-15T11:55:38;100763.66;;;23.87
45701;BMP280;36277;32.852;-116.998;2024-02-15T11:58:13;100766.28;;;23.88
45701;BMP280;36277;32.852;-116.998;2024-02-15T12:01:00;100769.72;;;23.82
45701;BMP280;36277;32.852;-116.998;2024-02-15T12:03:45;100776.94;;;23.75
45701;BMP280;36277;32.852;-116.998;2024-02-15T12:06:30;100787.13;;;23.75
45701;BMP280;36277;32.852;-116.998;2024-02-15T12:09:18;100792.66;;;23.59
45701;BMP280;36277;32.852;-116.998;2024-02-15T12:12:03;100791.09;;;23.64
45701;BMP280;36277;32.852;-116.998;2024-02-15T12:14:47;100786.63;;;23.63
45701;BMP280;36277;32.852;-116.998;2024-02-15T12:17:32;100768.53;;;23.61
45701;BMP280;36277;32.852;-116.998;2024-02-15T12:20:16;100764.25;;;23.58
45701;BMP280;36277;32.852;-116.998;2024-02-15T12:22:51;100760.78;;;23.56
45701;BMP280;36277;32.852;-116.998;2024-02-15T12:25:18;100762.72;;;23.56
45701;BMP280;36277;32.852;-116.998;2024-02-15T12:27:53;100767.00;;;23.58
45701;BMP280;36277;32.852;-116.998;2024-02-15T12:30:20;100755.63;;;23.53
45701;BMP280;36277;32.852;-116.998;2024-02-15T12:32:50;100753.91;;;23.52
45701;BMP280;36277;32.852;-116.998;2024-02-15T12:35:19;100751.50;;;23.49
45701;BMP280;36277;32.852;-116.998;2024-02-15T12:37:46;100754.59;;;23.46
45701;BMP280;36277;32.852;-116.998;2024-02-15T12:40:20;100741.16;;;23.51
45701;BMP280;36277;32.852;-116.998;2024-02-15T12:42:48;100735.50;;;23.45
45701;BMP280;36277;32.852;-116.998;2024-02-15T12:45:19;100726.41;;;23.44
45701;BMP280;36277;32.852;-116.998;2024-02-15T12:47:49;100729.16;;;23.44
45701;BMP280;36277;32.852;-116.998;2024-02-15T12:50:20;100741.03;;;23.45
45701;BMP280;36277;32.852;-116.998;2024-02-15T12:52:48;100738.81;;;23.40
45701;BMP280;36277;32.852;-116.998;2024-02-15T12:55:19;100748.09;;;23.39
45701;BMP280;36277;32.852;-116.998;2024-02-15T12:57:53;100752.72;;;23.39
45701;BMP280;36277;32.852;-116.998;2024-02-15T13:00:26;100749.28;;;23.37
45701;BMP280;36277;32.852;-116.998;2024-02-15T13:02:58;100746.88;;;23.34
45701;BMP280;36277;32.852;-116.998;2024-02-15T13:05:26;100743.28;;;23.33
45701;BMP280;36277;32.852;-116.998;2024-02-15T13:07:54;100745.34;;;23.31
45701;BMP280;36277;32.852;-116.998;2024-02-15T13:10:31;100746.03;;;23.33
45701;BMP280;36277;32.852;-116.998;2024-02-15T13:12:58;100754.28;;;23.41
45701;BMP280;36277;32.852;-116.998;2024-02-15T13:15:25;100755.28;;;23.48
45701;BMP280;36277;32.852;-116.998;2024-02-15T13:17:59;100761.16;;;23.53
45701;BMP280;36277;32.852;-116.998;2024-02-15T13:20:26;100763.22;;;23.59
45701;BMP280;36277;32.852;-116.998;2024-02-15T13:23:09;100773.34;;;23.67
45701;BMP280;36277;32.852;-116.998;2024-02-15T13:25:43;100779.00;;;23.73
45701;BMP280;36277;32.852;-116.998;2024-02-15T13:28:11;100775.59;;;23.79
45701;BMP280;36277;32.852;-116.998;2024-02-15T13:30:39;100779.38;;;23.86
45701;BMP280;36277;32.852;-116.998;2024-02-15T13:33:07;100775.22;;;23.90
45701;BMP280;36277;32.852;-116.998;2024-02-15T13:35:33;100787.25;;;23.97
45701;BMP280;36277;32.852;-116.998;2024-02-15T13:37:59;100783.78;;;24.03
45701;BMP280;36277;32.852;-116.998;2024-02-15T13:40:26;100790.47;;;24.09
45701;BMP280;36277;32.852;-116.998;2024-02-15T13:42:58;100791.50;;;24.15